Time;durP1;ratioP1;P1;durP2;ratioP2;P2;SDS_P1;SDS_P2;PMS_P1;PMS_P2;Temp;Humidity;BMP_temperature;BMP_pressure;BME280_temperature;BME280_humidity;BME280_pressure;Samples;Min_cycle;Max_cycle;Signal;HPM_P1;HPM_P2
2021/11/29 00:00:01;;;;;;;25.00;12.27;;;;;;;0.04;100.00;97889.53;5041193;28;20071;-61
2021/11/29 00:02:27;;;;;;;19.38;11.02;;;;;;;0.07;100.00;97898.84;5037287;28;20135;-61
2021/11/29 00:04:53;;;;;;;17.48;10.52;;;;;;;0.01;100.00;97903.13;5041218;28;20676;-61
2021/11/29 00:07:18;;;;;;;20.40;11.60;;;;;;;0.11;100.00;97913.25;5040381;28;20044;-62
2021/11/29 00:09:44;;;;;;;19.55;10.85;;;;;;;0.14;100.00;97908.34;5039451;28;20044;-61
2021/11/29 00:12:09;;;;;;;18.13;10.77;;;;;;;0.28;100.00;97916.25;5040862;28;20049;-61
2021/11/29 00:14:35;;;;;;;19.55;11.43;;;;;;;0.26;100.00;97916.44;5040820;28;20063;-61
2021/11/29 00:17:00;;;;;;;16.70;9.93;;;;;;;0.30;100.00;97911.53;5040396;28;20170;-61
2021/11/29 00:19:26;;;;;;;20.77;10.15;;;;;;;0.27;99.79;97917.25;5039904;28;20032;-61
2021/11/29 00:21:51;;;;;;;15.73;9.77;;;;;;;0.23;99.24;97916.06;5036580;28;20049;-61
2021/11/29 00:24:17;;;;;;;16.48;8.52;;;;;;;0.17;98.55;97921.09;5032381;28;20021;-61
2021/11/29 00:26:42;;;;;;;18.70;9.32;;;;;;;0.20;98.58;97920.72;5040104;28;20045;-61
2021/11/29 00:29:08;;;;;;;17.60;9.15;;;;;;;0.12;98.38;97915.66;5040057;28;20037;-61
2021/11/29 00:31:33;;;;;;;21.40;9.30;;;;;;;0.12;99.33;97920.13;5041285;28;20072;-61
2021/11/29 00:33:59;;;;;;;19.52;8.32;;;;;;;-0.04;98.70;97921.38;5040675;28;20061;-61
2021/11/29 00:36:24;;;;;;;19.38;8.65;;;;;;;-0.05;98.19;97919.75;5027599;28;20095;-61
2021/11/29 00:38:50;;;;;;;19.13;8.45;;;;;;;-0.10;97.73;97932.72;5040246;28;20036;-61
2021/11/29 00:41:15;;;;;;;19.25;7.63;;;;;;;-0.14;98.13;97929.72;5040097;28;20049;-61
2021/11/29 00:43:41;;;;;;;15.20;7.70;;;;;;;-0.19;97.94;97931.34;5038691;28;20798;-61
2021/11/29 00:46:07;;;;;;;15.50;8.80;;;;;;;-0.14;97.67;97937.59;5042580;28;20123;-61
2021/11/29 00:48:32;;;;;;;18.35;9.35;;;;;;;-0.11;98.38;97946.94;5044000;28;20037;-61
2021/11/29 00:50:58;;;;;;;16.25;8.48;;;;;;;-0.09;98.25;97947.53;5043927;28;20287;-61
2021/11/29 00:53:23;;;;;;;19.70;9.43;;;;;;;-0.14;98.10;97948.16;5045315;28;20313;-61
2021/11/29 00:55:49;;;;;;;20.45;9.57;;;;;;;-0.10;97.19;97953.81;5044005;28;20407;-61
2021/11/29 00:58:15;;;;;;;17.35;9.00;;;;;;;0.01;96.40;97947.91;5042854;28;20052;-61
2021/11/29 01:00:40;;;;;;;16.38;9.52;;;;;;;0.00;96.53;97962.13;5043660;28;20523;-61
2021/11/29 01:03:06;;;;;;;17.85;9.20;;;;;;;0.10;97.73;97959.03;5041303;28;20045;-61
2021/11/29 01:05:31;;;;;;;21.50;10.18;;;;;;;0.06;96.76;97960.47;5043222;28;20044;-61
2021/11/29 01:07:57;;;;;;;29.73;11.07;;;;;;;-0.02;97.65;97966.78;5044293;28;20407;-61
2021/11/29 01:10:25;;;;;;;25.02;11.20;;;;;;;0.06;99.37;97974.47;5043210;28;20044;-61
2021/11/29 01:12:51;;;;;;;19.88;11.15;;;;;;;-0.11;98.58;97966.16;5038582;28;20036;-62
2021/11/29 01:15:19;;;;;;;23.90;11.18;;;;;;;-0.06;99.24;97973.47;5037691;28;20025;-62
2021/11/29 01:17:44;;;;;;;28.70;12.65;;;;;;;-0.10;99.67;97975.69;5042327;28;20079;-61
2021/11/29 01:20:10;;;;;;;23.30;12.57;;;;;;;-0.14;98.82;97973.69;5042425;28;20029;-61
2021/11/29 01:22:36;;;;;;;27.63;11.90;;;;;;;-0.13;98.49;97977.91;5043451;28;20442;-61
2021/11/29 01:25:02;;;;;;;27.13;13.38;;;;;;;-0.16;98.72;97976.50;5043264;28;20453;-61
2021/11/29 01:27:27;;;;;;;30.10;13.45;;;;;;;-0.16;98.86;97980.97;5043495;28;20427;-61
2021/11/29 01:29:53;;;;;;;26.92;13.30;;;;;;;-0.16;98.83;97981.78;5043714;28;20032;-62
2021/11/29 01:32:18;;;;;;;25.13;13.45;;;;;;;-0.17;98.63;97976.72;5042432;28;20048;-61
2021/11/29 01:34:44;;;;;;;26.23;13.50;;;;;;;-0.20;98.57;97979.75;5043673;28;20036;-61
2021/11/29 01:37:09;;;;;;;28.95;14.52;;;;;;;-0.16;97.87;97992.31;5042674;28;20650;-60
2021/11/29 01:39:35;;;;;;;30.42;12.98;;;;;;;-0.18;98.15;97994.31;5042966;28;20033;-61
2021/11/29 01:42:01;;;;;;;28.17;14.43;;;;;;;-0.19;97.84;97999.81;5040916;28;20278;-60
2021/11/29 01:44:26;;;;;;;33.70;14.13;;;;;;;-0.15;98.13;98003.66;5042595;28;20483;-60
2021/11/29 01:46:52;;;;;;;28.70;13.25;;;;;;;-0.25;98.41;98004.06;5043776;28;20036;-61
2021/11/29 01:49:17;;;;;;;26.70;12.60;;;;;;;-0.29;98.09;98003.66;5042929;28;20032;-60
2021/11/29 01:51:43;;;;;;;35.45;14.07;;;;;;;-0.32;98.02;98013.81;5042849;28;20095;-61
2021/11/29 01:54:09;;;;;;;29.63;13.27;;;;;;;-0.38;98.67;98012.75;5043425;28;20025;-61
2021/11/29 01:56:35;;;;;;;26.35;13.85;;;;;;;-0.36;98.39;98010.75;5042677;28;20045;-61
2021/11/29 01:59:01;;;;;;;30.60;14.38;;;;;;;-0.37;97.81;98019.66;5042085;28;20074;-61
2021/11/29 02:01:26;;;;;;;33.90;14.70;;;;;;;-0.43;98.08;98017.81;5042569;28;20686;-60
2021/11/29 02:03:56;;;;;;;27.58;13.32;;;;;;;-0.40;98.47;98019.25;5042519;28;20064;-60
2021/11/29 02:06:26;;;;;;;31.00;14.60;;;;;;;-0.45;98.10;98023.31;5038696;28;20044;-60
2021/11/29 02:08:52;;;;;;;25.48;12.95;;;;;;;-0.49;98.27;98023.91;5039171;28;20479;-61
2021/11/29 02:11:18;;;;;;;35.25;14.90;;;;;;;-0.54;98.79;98023.69;5041305;28;20087;-60
2021/11/29 02:13:43;;;;;;;27.70;13.85;;;;;;;-0.61;98.75;98025.50;5042483;28;20021;-60
2021/11/29 02:16:09;;;;;;;30.73;14.85;;;;;;;-0.64;98.97;98031.16;5041970;28;20104;-60
2021/11/29 02:18:34;;;;;;;33.70;14.32;;;;;;;-0.70;98.81;98028.31;5042881;28;20479;-60
2021/11/29 02:21:13;;;;;;;31.27;14.52;;;;;;;-0.67;99.48;98033.19;5042050;28;20045;-60
2021/11/29 02:23:42;;;;;;;33.03;13.57;;;;;;;-0.70;98.57;98030.97;5042206;28;20041;-60
2021/11/29 02:26:07;;;;;;;31.30;14.40;;;;;;;-0.58;99.47;98035.63;5042193;28;20433;-61
2021/11/29 02:28:34;;;;;;;26.02;12.82;;;;;;;-0.66;98.08;98023.47;5042568;28;20333;-60
2021/11/29 02:30:59;;;;;;;31.75;13.00;;;;;;;-0.64;99.07;98036.44;5038688;28;20124;-61
2021/11/29 02:33:27;;;;;;;28.27;12.38;;;;;;;-0.71;98.66;98042.47;5039918;28;20434;-61
2021/11/29 02:35:52;;;;;;;26.33;12.48;;;;;;;-0.77;98.70;98034.59;5036636;28;20036;-61
2021/11/29 02:38:18;;;;;;;23.83;11.88;;;;;;;-0.72;98.69;98046.13;5041356;28;20663;-61
2021/11/29 02:40:44;;;;;;;30.45;13.30;;;;;;;-0.71;98.44;98045.09;5039151;28;20048;-61
2021/11/29 02:43:10;;;;;;;28.58;12.10;;;;;;;-0.63;99.08;98048.56;5042224;28;20241;-61
2021/11/29 02:45:35;;;;;;;29.30;12.55;;;;;;;-0.55;99.91;98045.75;5041224;28;20125;-61
2021/11/29 02:48:01;;;;;;;31.60;12.88;;;;;;;-0.58;99.84;98040.88;5042214;28;20025;-60
2021/11/29 02:50:26;;;;;;;28.27;12.70;;;;;;;-0.74;98.45;98050.78;5041063;28;20045;-60
2021/11/29 02:52:53;;;;;;;28.92;13.43;;;;;;;-0.72;98.78;98047.97;5041494;28;20052;-60
2021/11/29 02:55:18;;;;;;;30.58;12.60;;;;;;;-0.81;98.73;98060.47;5040937;28;20021;-60
2021/11/29 02:57:44;;;;;;;31.38;12.35;;;;;;;-0.71;99.73;98058.28;5041104;28;20031;-60
2021/11/29 03:00:10;;;;;;;29.10;12.93;;;;;;;-0.90;98.30;98064.28;5040520;28;20039;-61
2021/11/29 03:02:35;;;;;;;30.55;12.18;;;;;;;-1.00;97.81;98061.19;5037860;28;20045;-60
2021/11/29 03:05:03;;;;;;;24.10;10.98;;;;;;;-0.91;98.82;98073.19;5039743;28;20165;-59
2021/11/29 03:07:29;;;;;;;26.30;11.82;;;;;;;-0.97;98.76;98069.53;5040063;28;20060;-60
2021/11/29 03:09:54;;;;;;;24.75;12.20;;;;;;;-1.00;98.57;98074.34;5041673;28;20037;-60
2021/11/29 03:12:20;;;;;;;31.33;12.80;;;;;;;-0.90;99.69;98072.16;5040744;28;20036;-60
2021/11/29 03:14:45;;;;;;;32.55;12.57;;;;;;;-0.95;99.14;98080.66;5041600;28;20032;-60
2021/11/29 03:17:11;;;;;;;30.10;12.88;;;;;;;-0.99;99.45;98083.88;5041006;28;20045;-60
2021/11/29 03:19:38;;;;;;;32.38;12.40;;;;;;;-0.92;99.77;98082.09;5041213;28;20044;-60
2021/11/29 03:22:06;;;;;;;22.33;12.52;;;;;;;-0.99;99.09;98082.06;5040125;28;20041;-60
2021/11/29 03:24:31;;;;;;;24.08;11.05;;;;;;;-1.08;98.68;98081.41;5039098;28;20447;-61
2021/11/29 03:26:57;;;;;;;25.15;12.85;;;;;;;-1.08;99.78;98084.03;5040964;28;20712;-60
2021/11/29 03:29:22;;;;;;;33.75;12.70;;;;;;;-1.13;99.88;98081.19;5040940;28;20080;-60
2021/11/29 03:31:52;;;;;;;29.33;11.75;;;;;;;-1.36;99.14;98078.84;5032757;28;20049;-61
2021/11/29 03:34:17;;;;;;;26.83;12.50;;;;;;;-1.54;98.98;98089.88;5037354;28;20037;-61
2021/11/29 03:36:44;;;;;;;29.05;12.55;;;;;;;-1.52;100.00;98081.81;5035624;28;20045;-60
2021/11/29 03:39:16;;;;;;;37.65;12.32;;;;;;;-1.58;100.00;98088.63;5040678;28;20440;-61
2021/11/29 03:41:42;;;;;;;27.08;12.00;;;;;;;-1.59;100.00;98089.63;5040972;28;20045;-61
2021/11/29 03:44:08;;;;;;;26.17;11.55;;;;;;;-1.39;100.00;98097.63;5034312;28;20111;-61
2021/11/29 03:46:33;;;;;;;25.75;12.10;;;;;;;-1.45;100.00;98098.41;5038036;28;20563;-61
2021/11/29 03:48:59;;;;;;;31.52;12.95;;;;;;;-1.44;100.00;98093.97;5040398;28;20399;-61
2021/11/29 03:51:24;;;;;;;28.15;11.75;;;;;;;-1.44;100.00;98086.91;5036760;28;20044;-60
2021/11/29 03:53:50;;;;;;;27.30;12.07;;;;;;;-1.42;100.00;98086.69;5033577;28;20029;-60
2021/11/29 03:56:16;;;;;;;37.28;13.73;;;;;;;-1.38;100.00;98098.44;5035596;28;20041;-60
2021/11/29 03:58:41;;;;;;;26.75;12.02;;;;;;;-1.40;100.00;98097.81;5029133;28;20041;-61
2021/11/29 04:01:07;;;;;;;25.85;11.82;;;;;;;-1.35;100.00;98098.06;5040573;28;20041;-61
2021/11/29 04:03:34;;;;;;;24.67;12.73;;;;;;;-1.17;100.00;98106.25;5041195;28;20048;-60
2021/11/29 04:06:00;;;;;;;30.65;14.05;;;;;;;-1.25;100.00;98108.22;5039369;28;20048;-60
2021/11/29 04:08:25;;;;;;;26.23;12.82;;;;;;;-1.47;100.00;98115.34;5041212;28;20044;-61
2021/11/29 04:10:51;;;;;;;30.85;12.00;;;;;;;-1.59;100.00;98123.78;5040001;28;20554;-63
2021/11/29 04:13:17;;;;;;;27.73;12.43;;;;;;;-1.58;100.00;98121.97;5041574;28;20712;-60
2021/11/29 04:15:42;;;;;;;31.50;12.70;;;;;;;-1.74;100.00;98120.44;5039093;28;20152;-61
2021/11/29 04:18:08;;;;;;;28.23;13.68;;;;;;;-1.72;100.00;98113.19;5040931;28;20037;-61
2021/11/29 04:20:34;;;;;;;31.00;13.07;;;;;;;-1.46;100.00;98122.25;5041957;28;20098;-60
2021/11/29 04:22:59;;;;;;;29.83;13.15;;;;;;;-1.61;100.00;98120.53;5044652;28;20029;-61
2021/11/29 04:25:26;;;;;;;28.10;13.40;;;;;;;-1.64;100.00;98128.00;5043010;28;20052;-61
2021/11/29 04:27:53;;;;;;;28.17;12.77;;;;;;;-1.66;100.00;98124.75;5044367;28;20029;-61
2021/11/29 04:30:20;;;;;;;28.27;12.60;;;;;;;-1.60;100.00;98127.44;5036593;28;20495;-61
2021/11/29 04:32:47;;;;;;;28.58;14.05;;;;;;;-1.63;100.00;98132.25;5044597;28;20116;-61
2021/11/29 04:35:12;;;;;;;35.55;13.70;;;;;;;-1.37;100.00;98131.63;5043704;28;20017;-60
2021/11/29 04:37:38;;;;;;;26.80;12.05;;;;;;;-1.60;100.00;98137.94;5044383;28;20060;-61
2021/11/29 04:40:04;;;;;;;32.78;13.88;;;;;;;-1.41;100.00;98136.44;5044071;28;20155;-61
2021/11/29 04:42:30;;;;;;;29.25;12.60;;;;;;;-1.58;100.00;98135.09;5043464;28;20030;-61
2021/11/29 04:44:55;;;;;;;28.83;12.95;;;;;;;-1.56;99.50;98146.25;5042112;28;20128;-61
2021/11/29 04:47:21;;;;;;;26.48;12.63;;;;;;;-1.50;100.00;98147.28;5043612;28;20459;-61
2021/11/29 04:49:46;;;;;;;30.05;12.55;;;;;;;-1.48;98.97;98143.47;5043896;28;20047;-60
2021/11/29 04:52:12;;;;;;;25.05;11.00;;;;;;;-1.38;98.93;98143.13;5044100;28;20041;-61
2021/11/29 04:54:37;;;;;;;33.58;12.75;;;;;;;-1.19;99.84;98139.00;5043325;28;20464;-61
2021/11/29 04:57:03;;;;;;;32.47;11.25;;;;;;;-1.30;98.79;98140.34;5043935;28;20127;-61
2021/11/29 04:59:29;;;;;;;26.70;11.60;;;;;;;-1.28;97.56;98145.41;5044348;28;20122;-61
2021/11/29 05:01:58;;;;;;;24.70;11.35;;;;;;;-1.25;98.01;98156.34;5043950;28;20067;-61
2021/11/29 05:04:24;;;;;;;23.88;11.40;;;;;;;-1.44;98.31;98151.78;5040180;28;20090;-61
2021/11/29 05:06:49;;;;;;;24.95;11.25;;;;;;;-1.28;97.44;98151.47;5038289;28;20439;-61
2021/11/29 05:09:15;;;;;;;31.67;12.85;;;;;;;-1.37;96.91;98147.41;5040239;28;20041;-61
2021/11/29 05:11:41;;;;;;;30.88;12.77;;;;;;;-1.47;97.51;98154.78;5043330;28;20045;-61
2021/11/29 05:14:06;;;;;;;29.90;11.85;;;;;;;-1.45;99.43;98165.94;5039720;28;20036;-61
2021/11/29 05:16:32;;;;;;;30.05;12.35;;;;;;;-1.46;98.86;98159.06;5039585;28;20049;-61
2021/11/29 05:18:58;;;;;;;24.10;10.20;;;;;;;-1.49;98.02;98160.25;5043099;28;20558;-61
2021/11/29 05:21:23;;;;;;;22.73;8.80;;;;;;;-1.38;97.08;98161.53;5042578;28;20494;-61
2021/11/29 05:23:49;;;;;;;19.10;7.82;;;;;;;-1.39;96.22;98173.88;5043199;28;20541;-61
2021/11/29 05:26:21;;;;;;;16.85;8.38;;;;;;;-1.35;95.36;98171.66;5036967;28;20577;-61
2021/11/29 05:28:47;;;;;;;17.67;7.97;;;;;;;-1.40;95.46;98171.41;5043446;28;20139;-61
2021/11/29 05:31:13;;;;;;;21.83;8.30;;;;;;;-1.43;96.11;98169.97;5041581;28;20041;-62
2021/11/29 05:33:39;;;;;;;17.13;8.10;;;;;;;-1.52;96.08;98177.22;5043374;28;20060;-61
2021/11/29 05:36:04;;;;;;;15.68;6.68;;;;;;;-1.51;95.48;98172.75;5042119;28;20052;-61
2021/11/29 05:38:30;;;;;;;22.13;8.63;;;;;;;-1.60;95.84;98180.00;5041949;28;20482;-61
2021/11/29 05:40:56;;;;;;;19.00;7.13;;;;;;;-1.59;96.09;98184.22;5043100;28;20147;-62
2021/11/29 05:43:21;;;;;;;17.55;7.45;;;;;;;-1.56;95.48;98181.22;5043237;28;20052;-62
2021/11/29 05:45:47;;;;;;;28.55;10.55;;;;;;;-1.52;95.51;98181.66;5037667;28;20593;-61
2021/11/29 05:48:12;;;;;;;13.98;7.72;;;;;;;-1.45;94.87;98184.31;5042466;28;20059;-61
2021/11/29 05:50:38;;;;;;;17.20;6.78;;;;;;;-1.45;95.15;98192.22;5042573;28;20143;-62
2021/11/29 05:53:04;;;;;;;15.50;7.35;;;;;;;-1.36;94.68;98206.84;5043034;28;20061;-61
2021/11/29 05:55:30;;;;;;;18.52;7.80;;;;;;;-1.34;94.01;98204.84;5042588;28;20102;-61
2021/11/29 05:57:55;;;;;;;19.35;7.82;;;;;;;-1.39;94.55;98204.59;5042805;28;20028;-61
2021/11/29 06:00:21;;;;;;;18.83;7.22;;;;;;;-1.39;94.82;98208.03;5041654;28;20060;-61
2021/11/29 06:02:47;;;;;;;19.23;8.13;;;;;;;-1.38;94.21;98208.84;5042117;28;20029;-64
2021/11/29 06:05:12;;;;;;;21.38;9.10;;;;;;;-1.38;94.18;98208.84;5040439;28;20033;-61
2021/11/29 06:07:38;;;;;;;15.95;7.22;;;;;;;-1.27;93.98;98216.22;5042297;28;20044;-61
2021/11/29 06:10:04;;;;;;;16.27;8.30;;;;;;;-1.29;94.35;98212.97;5042159;28;20052;-60
2021/11/29 06:12:30;;;;;;;26.42;9.20;;;;;;;-1.27;93.97;98225.91;5041392;28;20033;-61
2021/11/29 06:14:55;;;;;;;22.17;9.55;;;;;;;-1.36;94.43;98226.06;5041314;28;20264;-61
2021/11/29 06:17:21;;;;;;;18.48;8.25;;;;;;;-1.35;93.88;98224.22;5040192;28;20421;-61
2021/11/29 06:19:46;;;;;;;15.95;8.45;;;;;;;-1.39;94.25;98230.88;5032544;28;20028;-61
2021/11/29 06:22:12;;;;;;;19.63;8.57;;;;;;;-1.40;94.55;98226.63;5041636;28;20040;-61
2021/11/29 06:24:37;;;;;;;16.10;7.95;;;;;;;-1.28;94.40;98230.34;5042726;28;20029;-62
2021/11/29 06:27:05;;;;;;;21.75;9.18;;;;;;;-1.29;94.00;98234.00;5040138;28;20076;-61
2021/11/29 06:29:30;;;;;;;22.27;8.23;;;;;;;-1.41;94.03;98235.53;5039458;28;20105;-62
2021/11/29 06:31:56;;;;;;;19.05;9.00;;;;;;;-1.27;94.99;98236.41;5040865;28;20045;-61
2021/11/29 06:34:24;;;;;;;17.33;9.05;;;;;;;-1.36;94.53;98222.63;5039232;28;20043;-62
2021/11/29 06:36:49;;;;;;;23.13;9.55;;;;;;;-1.36;94.46;98227.88;5046180;28;20217;-62
2021/11/29 06:39:15;;;;;;;15.38;7.40;;;;;;;-1.35;94.19;98232.13;5059194;28;20047;-61
2021/11/29 06:41:40;;;;;;;14.57;7.25;;;;;;;-1.41;94.09;98232.88;5042379;28;20600;-67
2021/11/29 06:44:06;;;;;;;19.38;10.77;;;;;;;-1.46;94.44;98235.28;5057951;28;20048;-62
2021/11/29 06:46:32;;;;;;;17.90;8.55;;;;;;;-1.46;94.79;98238.72;5061169;28;20485;-62
2021/11/29 06:48:58;;;;;;;18.55;8.82;;;;;;;-1.39;94.19;98249.28;5060258;28;20709;-62
2021/11/29 06:51:26;;;;;;;25.20;8.75;;;;;;;-1.42;94.10;98250.47;5059991;28;20044;-62
2021/11/29 06:53:52;;;;;;;18.92;8.35;;;;;;;-1.41;94.16;98246.03;5062217;28;20037;-62
2021/11/29 06:56:17;;;;;;;18.75;7.70;;;;;;;-1.46;94.15;98254.47;5061285;28;20047;-62
2021/11/29 06:58:43;;;;;;;15.75;6.75;;;;;;;-1.31;94.81;98267.53;5061343;28;20028;-62
2021/11/29 07:01:08;;;;;;;16.50;7.05;;;;;;;-1.16;94.51;98270.09;5061254;28;20648;-62
2021/11/29 07:03:35;;;;;;;22.40;9.38;;;;;;;-1.00;93.69;98269.00;5058056;28;20067;-62
2021/11/29 07:06:01;;;;;;;17.98;9.13;;;;;;;-0.83;92.52;98274.78;5058075;28;20037;-62
2021/11/29 07:08:27;;;;;;;15.88;7.57;;;;;;;-0.84;92.51;98283.69;5059827;28;20032;-62
2021/11/29 07:10:53;;;;;;;15.10;6.78;;;;;;;-0.72;91.95;98282.16;5060032;28;20039;-62
2021/11/29 07:13:18;;;;;;;18.70;10.73;;;;;;;-0.73;92.37;98286.56;5060361;28;20805;-62
2021/11/29 07:15:44;;;;;;;19.58;10.93;;;;;;;-0.69;91.91;98287.03;5059067;28;20071;-61
2021/11/29 07:18:10;;;;;;;14.95;8.18;;;;;;;-0.71;91.49;98289.84;5062168;28;20368;-62
2021/11/29 07:20:35;;;;;;;15.77;7.75;;;;;;;-0.63;91.76;98294.13;5061335;28;20405;-61
2021/11/29 07:23:02;;;;;;;20.30;10.32;;;;;;;-0.62;91.39;98297.56;5061982;28;20029;-62
2021/11/29 07:25:27;;;;;;;13.43;8.40;;;;;;;-0.68;91.20;98297.34;5056259;28;20049;-62
2021/11/29 07:27:53;;;;;;;15.05;7.65;;;;;;;-0.61;91.36;98301.84;5060992;28;20056;-62
2021/11/29 07:30:20;;;;;;;13.18;6.53;;;;;;;-0.67;90.80;98306.06;5058936;28;20471;-63
2021/11/29 07:32:46;;;;;;;14.90;8.70;;;;;;;-0.67;90.76;98317.41;5060907;28;20043;-62
2021/11/29 07:35:11;;;;;;;14.05;7.97;;;;;;;-0.61;90.23;98320.28;5059611;28;20159;-63
2021/11/29 07:37:37;;;;;;;15.20;7.70;;;;;;;-0.51;90.26;98318.91;5061178;28;20033;-62
2021/11/29 07:40:04;;;;;;;15.85;8.18;;;;;;;-0.53;90.55;98328.00;5054033;28;20048;-62
2021/11/29 07:42:30;;;;;;;16.30;8.70;;;;;;;-0.52;91.00;98334.91;5060061;28;20060;-62
2021/11/29 07:44:55;;;;;;;15.27;8.73;;;;;;;-0.50;90.79;98332.88;5052989;28;20041;-62
2021/11/29 07:47:24;;;;;;;13.32;7.15;;;;;;;-0.53;90.26;98336.72;5056708;28;20877;-62
2021/11/29 07:49:50;;;;;;;13.27;7.07;;;;;;;-0.40;91.68;98348.34;5061436;28;20024;-62
2021/11/29 07:52:15;;;;;;;13.23;6.93;;;;;;;-0.34;90.79;98343.13;5042191;28;20037;-62
2021/11/29 07:54:42;;;;;;;15.10;6.80;;;;;;;-0.28;89.93;98346.78;5035378;28;20032;-63
2021/11/29 07:57:08;;;;;;;12.30;6.35;;;;;;;-0.24;89.65;98342.78;5030977;28;20041;-62
2021/11/29 07:59:34;;;;;;;14.30;7.10;;;;;;;-0.02;88.68;98354.84;5041413;28;20814;-62
2021/11/29 08:01:59;;;;;;;14.18;6.90;;;;;;;0.13;87.53;98359.16;5041253;28;20044;-62
2021/11/29 08:04:25;;;;;;;12.30;6.22;;;;;;;0.15;87.21;98363.22;5041158;28;20033;-63
2021/11/29 08:06:51;;;;;;;14.50;7.60;;;;;;;0.14;87.55;98356.31;5039409;28;20223;-61
2021/11/29 08:09:17;;;;;;;14.27;6.80;;;;;;;0.03;88.19;98366.63;5040136;28;20037;-62
2021/11/29 08:11:42;;;;;;;12.90;6.78;;;;;;;-0.05;89.68;98364.94;5041125;28;20048;-61
2021/11/29 08:14:08;;;;;;;10.88;6.50;;;;;;;-0.01;87.78;98382.78;5040790;28;20029;-61
2021/11/29 08:16:33;;;;;;;11.57;6.30;;;;;;;-0.07;88.44;98374.88;5040211;28;20128;-61
2021/11/29 08:18:59;;;;;;;11.93;5.70;;;;;;;-0.10;88.25;98373.44;5040924;28;20581;-61
2021/11/29 08:21:24;;;;;;;13.05;6.65;;;;;;;0.08;87.42;98377.38;5040100;28;20049;-61
2021/11/29 08:23:50;;;;;;;12.23;6.43;;;;;;;0.10;87.30;98375.34;5041269;28;20564;-61
2021/11/29 08:26:15;;;;;;;15.00;6.07;;;;;;;0.14;87.57;98379.22;5040609;28;20396;-61
2021/11/29 08:28:41;;;;;;;9.88;5.70;;;;;;;0.20;87.36;98373.16;5024154;28;20044;-62
2021/11/29 08:31:07;;;;;;;11.98;6.35;;;;;;;0.23;86.98;98380.69;5038192;28;20078;-61
2021/11/29 08:33:32;;;;;;;21.33;8.25;;;;;;;0.16;87.47;98374.56;5042027;28;20036;-61
2021/11/29 08:35:58;;;;;;;17.33;7.38;;;;;;;0.25;87.24;98389.22;5039148;28;20079;-62
2021/11/29 08:38:24;;;;;;;12.95;6.85;;;;;;;0.26;87.27;98388.19;5041567;28;20028;-61
2021/11/29 08:40:49;;;;;;;12.25;6.13;;;;;;;0.34;86.72;98395.13;5023333;28;20509;-61
2021/11/29 08:43:16;;;;;;;16.92;6.97;;;;;;;0.41;86.99;98390.69;5038412;28;20076;-61
2021/11/29 08:45:42;;;;;;;10.45;5.72;;;;;;;0.58;86.72;98393.78;5040079;28;20049;-61
2021/11/29 08:48:08;;;;;;;11.35;5.65;;;;;;;0.55;85.89;98388.91;5039941;28;20033;-61
2021/11/29 08:50:34;;;;;;;12.32;5.85;;;;;;;0.60;85.81;98399.66;5040287;28;20041;-60
2021/11/29 08:53:01;;;;;;;9.73;5.45;;;;;;;0.73;85.54;98396.28;5035309;28;20037;-60
2021/11/29 08:55:27;;;;;;;9.50;5.18;;;;;;;0.73;84.99;98393.63;5039077;28;20545;-60
2021/11/29 08:57:53;;;;;;;13.57;5.47;;;;;;;0.81;84.53;98398.72;5037009;28;20029;-60
2021/11/29 09:00:18;;;;;;;12.63;5.53;;;;;;;0.96;84.62;98402.00;5039595;28;20041;-60
2021/11/29 09:02:44;;;;;;;13.93;5.60;;;;;;;0.99;84.22;98406.84;5030336;28;20068;-60
2021/11/29 09:05:10;;;;;;;12.10;5.28;;;;;;;1.06;84.49;98418.25;5037977;28;20078;-61
2021/11/29 09:07:36;;;;;;;12.77;6.18;;;;;;;0.98;84.66;98415.00;5044675;28;20036;-61
2021/11/29 09:10:03;;;;;;;8.95;5.40;;;;;;;1.00;84.40;98418.22;5044880;28;20079;-61
2021/11/29 09:12:29;;;;;;;11.90;6.00;;;;;;;1.19;83.92;98422.72;5043833;28;20039;-61
2021/11/29 09:14:55;;;;;;;12.32;5.40;;;;;;;0.97;84.71;98423.91;5043724;28;20419;-61
2021/11/29 09:17:20;;;;;;;11.90;5.25;;;;;;;0.84;85.30;98425.50;5054363;28;20075;-60
2021/11/29 09:19:46;;;;;;;10.85;5.25;;;;;;;0.76;85.38;98427.53;5041738;28;20036;-60
2021/11/29 09:22:11;;;;;;;10.82;4.70;;;;;;;0.94;85.06;98430.41;5040841;28;20069;-62
2021/11/29 09:24:37;;;;;;;10.55;5.30;;;;;;;1.06;85.04;98434.06;5041374;28;20033;-60
2021/11/29 09:27:03;;;;;;;8.90;4.55;;;;;;;0.98;85.56;98431.63;5043503;28;20045;-62
2021/11/29 09:29:28;;;;;;;10.95;4.90;;;;;;;1.02;84.73;98432.03;5041272;28;20072;-61
2021/11/29 09:31:55;;;;;;;12.88;4.20;;;;;;;1.18;84.41;98438.78;5043073;28;20060;-61
2021/11/29 09:34:21;;;;;;;14.60;5.20;;;;;;;1.26;84.16;98435.94;5041886;28;20032;-61
2021/11/29 09:36:47;;;;;;;11.40;4.18;;;;;;;1.38;83.82;98436.97;5042243;28;20577;-61
2021/11/29 09:39:12;;;;;;;9.40;4.57;;;;;;;1.46;84.19;98438.59;5039359;28;20098;-60
2021/11/29 09:41:38;;;;;;;9.15;4.55;;;;;;;1.60;82.98;98439.38;5040930;28;20045;-62
2021/11/29 09:44:04;;;;;;;12.60;4.97;;;;;;;1.75;82.78;98434.72;5037321;28;20483;-59
2021/11/29 09:46:30;;;;;;;10.45;4.35;;;;;;;1.78;83.19;98436.16;5043386;28;20676;-61
2021/11/29 09:48:55;;;;;;;10.90;4.60;;;;;;;1.80;82.54;98440.22;5043514;28;20116;-60
2021/11/29 09:51:21;;;;;;;12.60;4.57;;;;;;;1.82;82.99;98438.19;5042792;28;20525;-60
2021/11/29 09:53:46;;;;;;;8.98;4.68;;;;;;;1.87;82.68;98434.91;5043499;28;20067;-60
2021/11/29 09:56:12;;;;;;;12.85;5.07;;;;;;;2.06;82.92;98441.19;5043207;28;20524;-60
2021/11/29 09:58:38;;;;;;;8.75;4.53;;;;;;;2.22;81.17;98435.47;5040081;28;20464;-60
2021/11/29 10:01:04;;;;;;;10.45;4.38;;;;;;;2.24;81.42;98429.94;5041438;28;20044;-60
2021/11/29 10:03:29;;;;;;;10.05;4.40;;;;;;;2.29;80.25;98436.22;5042596;28;20036;-60
2021/11/29 10:05:55;;;;;;;15.02;5.13;;;;;;;2.16;80.75;98438.91;5041599;28;20043;-60
2021/11/29 10:08:38;;;;;;;12.52;4.97;;;;;;;2.19;80.87;98441.13;5036311;28;20044;-62
2021/11/29 10:11:12;;;;;;;11.02;4.93;;;;;;;2.36;80.45;98438.84;5041690;28;20383;-62
2021/11/29 10:13:58;;;;;;;9.93;4.25;;;;;;;2.42;79.89;98447.78;5028509;28;20484;-61
2021/11/29 10:16:32;;;;;;;10.60;4.78;;;;;;;2.63;79.42;98442.22;5042225;28;20106;-62
2021/11/29 10:18:58;;;;;;;11.90;3.80;;;;;;;2.94;79.29;98448.56;5038197;28;20044;-62
2021/11/29 10:21:24;;;;;;;9.18;3.80;;;;;;;3.08;78.04;98451.97;5041676;28;20044;-62
2021/11/29 10:23:54;;;;;;;12.02;3.90;;;;;;;3.02;77.58;98443.03;5042548;28;20048;-62
2021/11/29 10:26:23;;;;;;;9.52;3.90;;;;;;;2.71;78.97;98447.25;5042800;28;20132;-62
2021/11/29 10:28:56;;;;;;;10.80;4.00;;;;;;;2.71;79.23;98447.25;5036465;28;21062;-61
2021/11/29 10:31:32;;;;;;;8.70;3.10;;;;;;;2.81;78.78;98450.25;5034890;28;20440;-62
2021/11/29 10:34:05;;;;;;;8.93;3.53;;;;;;;2.84;78.09;98454.31;5038323;28;20025;-62
2021/11/29 10:36:33;;;;;;;12.15;4.00;;;;;;;3.00;78.12;98445.91;5038527;28;20101;-60
2021/11/29 10:39:03;;;;;;;7.00;3.13;;;;;;;3.71;75.63;98446.63;5040130;28;20048;-60
2021/11/29 10:41:34;;;;;;;9.98;3.42;;;;;;;3.43;76.83;98441.75;5037864;28;20918;-60
2021/11/29 10:44:00;;;;;;;7.40;3.38;;;;;;;3.37;76.58;98439.94;5043191;28;20061;-60
2021/11/29 10:46:34;;;;;;;8.95;3.35;;;;;;;3.86;75.53;98433.84;5036124;28;20041;-60
2021/11/29 10:49:03;;;;;;;12.20;4.20;;;;;;;3.60;76.01;98432.25;5040523;28;20104;-60
2021/11/29 10:51:28;;;;;;;8.80;3.47;;;;;;;3.49;76.60;98429.47;5041255;28;20049;-60
2021/11/29 10:53:56;;;;;;;9.93;3.28;;;;;;;3.43;76.03;98421.38;5042314;28;20029;-61
2021/11/29 10:56:22;;;;;;;9.20;3.58;;;;;;;3.55;76.18;98428.63;5039447;28;20037;-62
2021/11/29 10:58:49;;;;;;;8.05;3.20;;;;;;;3.61;75.94;98431.19;5040935;28;20027;-62
2021/11/29 11:01:16;;;;;;;11.43;4.00;;;;;;;3.41;75.35;98430.56;5042247;28;20060;-63
2021/11/29 11:03:52;;;;;;;7.72;3.63;;;;;;;3.35;76.99;98432.22;5041663;28;20037;-62
2021/11/29 11:06:38;;;;;;;7.25;3.40;;;;;;;3.44;76.49;98432.75;5039306;28;20115;-62
2021/11/29 11:09:15;;;;;;;10.57;3.38;;;;;;;3.18;77.84;98425.84;5040924;28;20025;-61
2021/11/29 11:11:44;;;;;;;6.75;3.33;;;;;;;3.30;77.65;98439.22;5040209;28;20443;-60
2021/11/29 11:14:32;;;;;;;8.35;3.67;;;;;;;3.36;77.04;98438.34;5035056;28;20020;-60
2021/11/29 11:17:06;;;;;;;8.38;3.50;;;;;;;3.37;77.48;98439.94;5029425;28;20037;-60
2021/11/29 11:19:40;;;;;;;7.38;3.13;;;;;;;3.43;77.59;98445.22;5040211;28;20058;-62